Time;durP1;ratioP1;P1;durP2;ratioP2;P2;SDS_P1;SDS_P2;PMS_P1;PMS_P2;Temp;Humidity;BMP_temperature;BMP_pressure;BME280_temperature;BME280_humidity;BME280_pressure;Samples;Min_cycle;Max_cycle;Signal;HPM_P1;HPM_P2
2023/07/07 00:01:09;;;;;;;5.43;1.27;;;;;;;15.09;55.73;100087.47;5078792;28;20044;-45
2023/07/07 00:03:36;;;;;;;4.75;1.85;;;;;;;15.08;56.02;100088.38;5091913;27;20554;-46
2023/07/07 00:06:03;;;;;;;3.00;1.00;;;;;;;15.04;55.83;100098.03;5095961;27;20052;-50
2023/07/07 00:08:31;;;;;;;5.10;1.90;;;;;;;15.01;56.47;100098.97;5096927;27;20043;-42
2023/07/07 00:10:58;;;;;;;4.53;1.33;;;;;;;15.01;56.21;100103.31;5096249;28;20036;-45
2023/07/07 00:13:26;;;;;;;3.92;1.40;;;;;;;15.01;56.32;100098.09;5099102;27;20135;-46
2023/07/07 00:16:02;;;;;;;3.25;1.40;;;;;;;14.97;57.04;100106.88;5104418;27;20483;-51
2023/07/07 00:18:29;;;;;;;3.42;1.55;;;;;;;14.99;56.32;100099.84;5098163;27;20622;-52
2023/07/07 00:20:58;;;;;;;4.38;2.40;;;;;;;14.99;56.32;100102.47;5104225;28;20040;-47
2023/07/07 00:23:29;;;;;;;5.03;2.08;;;;;;;14.97;56.59;100101.66;5079547;28;20105;-46
2023/07/07 00:26:04;;;;;;;4.07;1.80;;;;;;;14.95;56.76;100098.19;5095722;27;20067;-45
2023/07/07 00:28:33;;;;;;;3.45;1.50;;;;;;;14.93;56.68;100105.22;5077360;28;20076;-45
2023/07/07 00:31:02;;;;;;;3.63;1.95;;;;;;;14.90;56.94;100106.97;5099236;27;20040;-46
2023/07/07 00:33:30;;;;;;;4.85;1.48;;;;;;;14.90;56.58;100100.94;5096643;27;20058;-42
2023/07/07 00:35:58;;;;;;;4.65;1.23;;;;;;;14.86;56.87;100102.72;5104277;28;20048;-43
2023/07/07 00:38:26;;;;;;;5.57;2.10;;;;;;;14.86;56.96;100109.69;5097764;27;20169;-40
2023/07/07 00:40:54;;;;;;;4.28;1.27;;;;;;;14.83;57.09;100100.16;5101232;28;20414;-47
2023/07/07 00:43:23;;;;;;;3.10;1.20;;;;;;;14.82;57.14;100098.44;5084574;27;20067;-41
2023/07/07 00:45:52;;;;;;;5.65;1.65;;;;;;;14.81;57.72;100098.47;5108102;27;20070;-52
2023/07/07 00:48:24;;;;;;;4.03;1.50;;;;;;;14.78;58.15;100091.59;5070766;28;20047;-46
2023/07/07 00:50:58;;;;;;;5.07;1.95;;;;;;;14.77;58.08;100089.88;5056840;28;20056;-46
2023/07/07 00:53:28;;;;;;;4.22;1.48;;;;;;;14.77;58.44;100095.94;5088845;28;20039;-49
2023/07/07 00:56:02;;;;;;;5.03;1.13;;;;;;;14.76;58.39;100091.56;5102196;28;20043;-48
2023/07/07 00:58:31;;;;;;;3.88;1.73;;;;;;;14.78;59.09;100091.59;5099821;28;20478;-44
2023/07/07 01:01:05;;;;;;;5.50;1.50;;;;;;;14.79;59.10;100088.06;5101506;28;20071;-43
2023/07/07 01:03:38;;;;;;;4.70;1.08;;;;;;;14.80;58.50;100087.22;5078158;28;20058;-42
2023/07/07 01:06:08;;;;;;;3.22;1.25;;;;;;;14.83;58.82;100094.09;5073389;28;20538;-48
2023/07/07 01:08:37;;;;;;;5.95;1.98;;;;;;;14.84;58.64;100091.47;5095590;28;20047;-46
2023/07/07 01:11:04;;;;;;;3.05;1.05;;;;;;;14.85;59.44;100093.19;5091333;28;20044;-47
2023/07/07 01:13:31;;;;;;;3.83;1.75;;;;;;;14.86;59.15;100094.88;5096520;28;20075;-42
2023/07/07 01:19:03;;;;;;;5.30;3.38;;;;;;;14.87;59.64;100091.41;4997273;28;20884;-43
2023/07/07 01:21:40;;;;;;;8.18;3.30;;;;;;;14.96;59.58;100103.38;4973112;28;20062;-43
2023/07/07 01:32:21;;;;;;;4.15;2.00;;;;;;;15.21;59.79;100105.50;5047168;28;20405;-44
2023/07/07 01:34:48;;;;;;;3.92;1.38;;;;;;;15.15;59.50;100101.28;5053376;28;20500;-50
2023/07/07 01:37:15;;;;;;;2.75;1.50;;;;;;;15.15;59.32;100095.19;5051516;28;20071;-46
2023/07/07 01:39:43;;;;;;;4.40;1.63;;;;;;;15.14;58.90;100089.09;5048176;28;20044;-51
2023/07/07 01:42:18;;;;;;;3.28;1.02;;;;;;;15.12;59.23;100101.34;5051674;28;20041;-45
2023/07/07 01:45:03;;;;;;;2.60;1.23;;;;;;;15.10;59.26;100100.50;5054147;28;20047;-45
2023/07/07 01:47:35;;;;;;;7.07;1.33;;;;;;;15.08;59.74;100099.69;5054362;28;20495;-45
2023/07/07 01:52:48;;;;;;;2.42;1.48;;;;;;;15.02;59.10;100105.88;5100466;27;20403;-42
2023/07/07 01:55:22;;;;;;;4.38;1.27;;;;;;;15.01;59.04;100104.19;5031062;28;21115;-42
2023/07/07 01:57:53;;;;;;;3.35;1.13;;;;;;;14.99;59.08;100105.06;5030076;28;20057;-47
2023/07/07 02:00:22;;;;;;;2.80;1.23;;;;;;;14.97;59.07;100106.88;5029628;28;20052;-54
2023/07/07 02:02:51;;;;;;;3.60;1.58;;;;;;;14.92;59.05;100103.50;5029998;28;20046;-46
2023/07/07 02:05:18;;;;;;;4.38;1.50;;;;;;;14.89;59.54;100107.00;5025588;28;20073;-49
2023/07/07 02:07:45;;;;;;;3.33;1.60;;;;;;;14.84;59.64;100109.72;5024128;28;20056;-50
2023/07/07 02:10:11;;;;;;;4.22;1.02;;;;;;;14.82;59.49;100108.88;5054902;28;20113;-47
2023/07/07 02:12:39;;;;;;;3.25;1.52;;;;;;;14.78;59.86;100109.84;5030861;28;20038;-51
2023/07/07 02:15:06;;;;;;;3.03;1.30;;;;;;;14.75;59.22;100102.91;5043568;28;20056;-43
2023/07/07 02:17:33;;;;;;;5.43;1.40;;;;;;;14.73;59.79;100111.66;5043996;28;20539;-46
2023/07/07 02:20:00;;;;;;;3.75;1.52;;;;;;;14.69;59.96;100113.44;5045771;28;20068;-44
2023/07/07 02:22:26;;;;;;;4.10;1.90;;;;;;;14.67;59.41;100110.00;5045044;28;20106;-47
2023/07/07 02:24:53;;;;;;;6.93;2.80;;;;;;;14.64;59.66;100110.94;5043867;28;20049;-43
2023/07/07 02:27:20;;;;;;;8.15;3.17;;;;;;;14.62;59.39;100110.09;5043760;28;20045;-42
2023/07/07 02:29:46;;;;;;;7.13;3.20;;;;;;;14.59;60.06;100110.13;5042250;28;20052;-46
2023/07/07 02:32:13;;;;;;;7.93;2.90;;;;;;;14.58;59.27;100100.59;5045588;28;20045;-43
2023/07/07 02:34:47;;;;;;;4.85;2.67;;;;;;;14.55;59.42;100105.88;5044067;28;20060;-49
2023/07/07 02:37:17;;;;;;;5.22;2.22;;;;;;;14.52;59.82;100108.53;5041924;28;20048;-48
2023/07/07 02:39:45;;;;;;;4.28;1.88;;;;;;;14.51;59.87;100109.44;5045722;28;20057;-54
2023/07/07 02:42:12;;;;;;;5.90;2.42;;;;;;;14.48;59.93;100109.47;5042323;28;20061;-47
2023/07/07 02:44:39;;;;;;;5.90;2.00;;;;;;;14.45;58.91;100109.56;5039588;28;20144;-44
2023/07/07 02:47:07;;;;;;;4.63;2.15;;;;;;;14.42;59.93;100109.59;5042171;28;20528;-46
2023/07/07 02:49:34;;;;;;;4.90;1.63;;;;;;;14.38;59.72;100112.25;5042596;28;20128;-50
2023/07/07 02:52:01;;;;;;;5.22;2.03;;;;;;;14.35;59.71;100109.69;5039840;28;20052;-52
2023/07/07 02:54:27;;;;;;;7.82;2.10;;;;;;;14.33;59.55;100106.28;5038913;28;20049;-47
2023/07/07 02:56:54;;;;;;;3.42;1.45;;;;;;;14.31;59.76;100102.81;5036284;28;20049;-43
2023/07/07 02:59:21;;;;;;;4.53;1.83;;;;;;;14.26;60.72;100115.09;5042394;28;20067;-46
2023/07/07 03:01:47;;;;;;;6.45;1.80;;;;;;;14.23;60.34;100109.91;5039652;28;20063;-48
2023/07/07 03:04:14;;;;;;;4.15;1.80;;;;;;;14.20;60.09;100120.38;5027772;28;20052;-42
2023/07/07 03:06:41;;;;;;;7.03;1.90;;;;;;;14.19;60.12;100116.06;5028266;28;20053;-44
2023/07/07 03:09:09;;;;;;;4.18;1.60;;;;;;;14.18;60.43;100114.34;5027035;28;20056;-48
2023/07/07 03:11:35;;;;;;;4.68;1.42;;;;;;;14.13;60.02;100115.28;5025414;28;20052;-42
2023/07/07 03:14:02;;;;;;;6.82;3.15;;;;;;;14.11;60.13;100117.03;5027784;28;21088;-49
2023/07/07 03:16:30;;;;;;;4.13;1.70;;;;;;;14.09;60.58;100124.00;5024839;28;20060;-45
2023/07/07 03:19:01;;;;;;;5.63;1.92;;;;;;;14.06;60.57;100124.09;5026960;28;20190;-46
2023/07/07 03:21:28;;;;;;;5.65;1.80;;;;;;;14.04;60.83;100128.44;5021008;28;20102;-42
2023/07/07 03:23:55;;;;;;;4.15;1.38;;;;;;;13.99;60.54;100117.25;5031258;28;20080;-47
2023/07/07 03:26:24;;;;;;;4.05;1.25;;;;;;;13.96;60.49;100120.78;5028829;28;20053;-43
2023/07/07 03:28:51;;;;;;;5.82;1.25;;;;;;;13.94;61.26;100113.84;5025352;28;20122;-45
2023/07/07 03:31:22;;;;;;;5.28;1.50;;;;;;;13.89;61.61;100106.13;5026106;28;20443;-43
2023/07/07 03:33:52;;;;;;;4.90;1.45;;;;;;;13.86;60.90;100107.03;5027303;28;20049;-46
2023/07/07 03:36:21;;;;;;;2.30;1.30;;;;;;;13.83;61.53;100107.06;5024646;28;20057;-44
2023/07/07 03:38:48;;;;;;;3.60;1.73;;;;;;;13.80;61.48;100099.31;5026894;28;20079;-45
2023/07/07 03:41:18;;;;;;;3.47;1.35;;;;;;;13.79;62.13;100100.19;5026957;28;20057;-51
2023/07/07 03:43:45;;;;;;;3.83;1.02;;;;;;;13.80;61.56;100107.13;5029759;28;20110;-42
2023/07/07 03:46:14;;;;;;;4.55;1.45;;;;;;;13.81;61.35;100102.78;5031959;28;20057;-48
2023/07/07 03:48:41;;;;;;;3.95;1.55;;;;;;;13.80;61.52;100114.94;5037361;28;20068;-41
2023/07/07 03:51:09;;;;;;;5.63;1.33;;;;;;;13.79;61.21;100109.75;5038812;28;20603;-48
2023/07/07 03:53:36;;;;;;;3.78;1.77;;;;;;;13.78;62.03;100113.22;5038437;28;20048;-51
2023/07/07 03:56:04;;;;;;;5.68;1.80;;;;;;;13.77;61.66;100120.16;5040387;28;20528;-45
2023/07/07 03:58:31;;;;;;;3.38;1.42;;;;;;;13.78;61.58;100134.06;5035411;28;20611;-41
2023/07/07 04:01:01;;;;;;;4.07;1.40;;;;;;;13.78;61.17;100123.66;5042556;28;20501;-47
2023/07/07 04:03:28;;;;;;;3.60;1.98;;;;;;;13.77;60.71;100117.56;5035580;28;20506;-42
2023/07/07 04:05:55;;;;;;;2.78;1.45;;;;;;;13.76;61.02;100121.06;5034935;28;20049;-45
2023/07/07 04:08:23;;;;;;;15.57;1.92;;;;;;;13.77;61.33;100122.78;5035715;28;20667;-45
2023/07/07 04:11:08;;;;;;;6.03;1.70;;;;;;;13.71;61.87;100117.69;5039496;28;20041;-45
2023/07/07 04:13:38;;;;;;;4.68;1.42;;;;;;;13.75;60.90;100111.53;5036759;28;20416;-49
2023/07/07 04:18:45;;;;;;;5.90;1.77;;;;;;;13.75;61.93;100120.19;5035694;27;20628;-48
2023/07/07 04:21:15;;;;;;;3.35;1.50;;;;;;;13.74;61.63;100120.22;5027313;28;20046;-48
2023/07/07 04:23:45;;;;;;;4.63;2.05;;;;;;;13.76;61.25;100121.06;5029339;28;20060;-45
2023/07/07 04:26:12;;;;;;;5.10;2.08;;;;;;;13.75;62.18;100127.16;5030757;28;20053;-50
2023/07/07 04:28:40;;;;;;;4.70;1.83;;;;;;;13.75;61.64;100124.56;5029189;28;20504;-45
2023/07/07 04:31:09;;;;;;;4.18;1.60;;;;;;;13.75;61.44;100132.38;5027673;28;20048;-50
2023/07/07 04:33:36;;;;;;;4.97;2.00;;;;;;;13.75;61.76;100129.75;5029446;28;20063;-46
2023/07/07 04:36:06;;;;;;;4.72;2.45;;;;;;;13.78;61.27;100124.47;5028670;28;20320;-49
2023/07/07 04:38:34;;;;;;;4.25;1.77;;;;;;;13.78;61.18;100129.69;5028891;28;20053;-47
2023/07/07 04:41:21;;;;;;;4.57;1.88;;;;;;;13.75;62.34;100124.56;5027229;28;20051;-47
2023/07/07 04:43:50;;;;;;;4.10;2.10;;;;;;;13.81;61.50;100124.44;5027785;28;20049;-43
2023/07/07 04:46:22;;;;;;;2.53;1.92;;;;;;;13.85;62.31;100123.50;5029928;28;20055;-53
2023/07/07 04:48:49;;;;;;;4.32;1.70;;;;;;;13.90;61.90;100127.78;5027692;28;20051;-49
2023/07/07 04:51:17;;;;;;;3.28;1.63;;;;;;;13.93;61.91;100133.84;5026817;28;20064;-44
2023/07/07 04:53:44;;;;;;;4.22;1.80;;;;;;;13.95;62.44;100137.25;5030836;28;20493;-48
2023/07/07 04:56:15;;;;;;;3.60;1.33;;;;;;;13.99;62.13;100138.09;5030285;28;20493;-49
2023/07/07 04:58:43;;;;;;;6.13;1.92;;;;;;;14.04;61.77;100136.25;5021810;28;21021;-46
2023/07/07 05:03:51;;;;;;;6.18;2.63;;;;;;;14.17;62.59;100147.34;5061294;27;20923;-50
2023/07/07 05:06:19;;;;;;;6.03;2.15;;;;;;;14.22;62.15;100135.09;5042542;28;20064;-47
2023/07/07 05:08:46;;;;;;;3.22;2.47;;;;;;;14.29;62.26;100135.88;5048518;28;20135;-44
2023/07/07 05:11:15;;;;;;;3.58;2.03;;;;;;;14.39;61.97;100137.41;5066068;28;20056;-47
2023/07/07 05:13:44;;;;;;;3.30;1.90;;;;;;;14.46;62.06;100132.13;5062948;28;20048;-50
2023/07/07 05:16:14;;;;;;;4.35;2.67;;;;;;;14.56;62.16;100138.03;5049635;28;20053;-46
2023/07/07 05:18:41;;;;;;;3.85;2.20;;;;;;;14.63;61.88;100140.47;5046396;28;20056;-47
2023/07/07 05:21:10;;;;;;;2.67;2.30;;;;;;;14.70;62.06;100141.25;5046954;28;20059;-46
2023/07/07 05:23:37;;;;;;;3.38;1.90;;;;;;;14.82;62.28;100150.59;5049400;28;20053;-48
2023/07/07 05:26:05;;;;;;;3.47;1.98;;;;;;;14.94;61.65;100149.53;5060721;28;20055;-50
2023/07/07 05:28:32;;;;;;;5.60;2.70;;;;;;;15.06;61.36;100152.78;5043293;28;20063;-44
2023/07/07 05:30:59;;;;;;;3.75;2.72;;;;;;;15.16;61.03;100160.38;5043491;28;20061;-48
2023/07/07 05:33:28;;;;;;;6.25;3.58;;;;;;;15.29;61.27;100155.78;5057362;28;20067;-45
2023/07/07 05:35:59;;;;;;;;;;;;;;;15.28;61.06;100150.59;5061161;28;20049;-53
2023/07/07 05:38:27;;;;;;;4.82;2.53;;;;;;;15.49;61.10;100151.00;5065669;28;19921;-47
2023/07/07 05:40:55;;;;;;;4.57;2.58;;;;;;;15.62;61.12;100147.25;5073305;28;20473;-47
2023/07/07 05:43:23;;;;;;;4.18;3.03;;;;;;;15.73;61.13;100146.13;5063928;28;20047;-49
2023/07/07 05:45:56;;;;;;;3.92;2.08;;;;;;;15.81;60.99;100152.06;5053516;28;20048;-49
2023/07/07 05:48:24;;;;;;;8.02;2.42;;;;;;;15.92;60.20;100152.69;5058562;28;20053;-45
2023/07/07 05:50:52;;;;;;;4.05;2.67;;;;;;;16.04;60.63;100148.06;5054878;28;20063;-49
2023/07/07 05:53:19;;;;;;;2.92;2.05;;;;;;;16.17;60.40;100154.72;5046052;28;20055;-46
2023/07/07 05:55:47;;;;;;;3.63;2.63;;;;;;;16.28;59.61;100158.84;5043747;28;20060;-46
2023/07/07 05:58:15;;;;;;;3.08;2.13;;;;;;;16.41;59.44;100152.41;5045529;28;20060;-47
2023/07/07 06:00:42;;;;;;;4.68;2.63;;;;;;;16.55;59.32;100149.44;5061310;28;20052;-47
2023/07/07 06:03:10;;;;;;;7.22;1.40;;;;;;;16.65;59.67;100155.28;5045704;28;20630;-44
2023/07/07 06:05:36;;;;;;;4.60;2.30;;;;;;;16.79;58.96;100161.91;5037443;28;20109;-45
2023/07/07 06:08:04;;;;;;;3.65;2.40;;;;;;;16.95;59.11;100168.44;5028646;28;20045;-49
2023/07/07 06:10:32;;;;;;;5.00;2.83;;;;;;;17.07;59.36;100167.28;5045061;28;20045;-44
2023/07/07 06:13:00;;;;;;;3.95;2.55;;;;;;;17.23;58.97;100165.97;5040648;28;20049;-52
2023/07/07 06:15:26;;;;;;;4.55;2.88;;;;;;;17.38;58.74;100170.75;5035186;28;20091;-50
2023/07/07 06:17:53;;;;;;;3.72;2.38;;;;;;;17.57;58.87;100175.47;5020358;28;20045;-42
2023/07/07 06:20:20;;;;;;;4.68;1.42;;;;;;;17.77;58.43;100187.09;5014995;28;20464;-52
2023/07/07 06:22:46;;;;;;;2.80;2.05;;;;;;;17.96;57.51;100180.38;5016918;28;20062;-45
2023/07/07 06:25:14;;;;;;;3.70;2.55;;;;;;;18.10;57.43;100184.34;5016566;28;20088;-42
2023/07/07 06:27:40;;;;;;;4.93;2.38;;;;;;;18.23;57.50;100185.69;5027904;28;20045;-44
2023/07/07 06:30:07;;;;;;;3.95;2.40;;;;;;;18.38;57.15;100188.72;5030127;28;20057;-47
2023/07/07 06:32:34;;;;;;;2.58;2.28;;;;;;;18.46;57.03;100181.44;5034479;28;20053;-46
2023/07/07 06:35:00;;;;;;;3.63;2.17;;;;;;;18.58;56.71;100179.31;5034826;28;20053;-49
2023/07/07 06:37:27;;;;;;;3.95;2.22;;;;;;;18.67;56.74;100173.72;5036870;28;20060;-50
2023/07/07 06:39:54;;;;;;;4.53;2.80;;;;;;;18.78;56.96;100175.97;5035617;28;20079;-51
2023/07/07 06:42:21;;;;;;;3.70;2.50;;;;;;;18.92;55.86;100183.38;5034913;28;20595;-44
2023/07/07 06:44:48;;;;;;;4.15;1.58;;;;;;;19.08;55.71;100182.88;5035794;28;20354;-44
2023/07/07 06:47:16;;;;;;;4.47;2.28;;;;;;;19.26;55.84;100183.97;5035020;28;20671;-44
2023/07/07 06:49:44;;;;;;;5.78;2.28;;;;;;;19.44;55.71;100185.03;5032877;28;20041;-42
2023/07/07 06:52:10;;;;;;;3.95;1.55;;;;;;;19.68;55.56;100192.03;5014211;28;20532;-50
2023/07/07 06:54:37;;;;;;;4.20;2.55;;;;;;;19.88;55.12;100189.50;5024180;28;20114;-48
2023/07/07 06:57:04;;;;;;;3.25;2.95;;;;;;;20.04;54.59;100194.16;5032778;28;20870;-46
2023/07/07 06:59:31;;;;;;;3.83;2.85;;;;;;;20.21;54.11;100200.50;5036264;28;20084;-50
2023/07/07 07:01:57;;;;;;;4.53;2.78;;;;;;;20.39;53.90;100207.66;5034326;28;20056;-52
2023/07/07 07:04:24;;;;;;;5.68;3.15;;;;;;;20.63;54.09;100201.41;5028022;28;20048;-49
2023/07/07 07:06:51;;;;;;;4.03;3.47;;;;;;;20.80;53.30;100214.72;5030266;28;20060;-50
2023/07/07 07:09:17;;;;;;;4.40;2.45;;;;;;;21.01;53.22;100217.34;5033858;28;20053;-44
2023/07/07 07:11:44;;;;;;;4.43;1.90;;;;;;;21.21;52.54;100210.34;5023703;28;20609;-41
2023/07/07 07:14:14;;;;;;;5.82;3.63;;;;;;;21.41;52.76;100213.88;5013811;28;20141;-49
2023/07/07 07:16:41;;;;;;;3.75;2.53;;;;;;;21.58;52.29;100211.31;5011543;28;20057;-47
2023/07/07 07:19:08;;;;;;;4.05;2.67;;;;;;;21.77;51.48;100215.75;5009734;28;20055;-50
2023/07/07 07:21:34;;;;;;;2.90;2.22;;;;;;;22.00;51.36;100219.09;5005195;28;20053;-51
2023/07/07 07:24:01;;;;;;;6.00;1.77;;;;;;;22.25;51.30;100212.59;5007833;28;20446;-49
2023/07/07 07:26:28;;;;;;;4.28;2.00;;;;;;;22.50;50.42;100213.19;5008781;28;20045;-48
2023/07/07 07:28:54;;;;;;;4.95;2.15;;;;;;;22.73;50.69;100217.34;5009659;28;20054;-45
2023/07/07 07:31:21;;;;;;;3.63;2.13;;;;;;;23.01;50.36;100223.81;5012610;28;20514;-50
2023/07/07 07:33:51;;;;;;;3.30;2.55;;;;;;;23.27;49.97;100224.22;5015323;28;20069;-55
2023/07/07 07:36:18;;;;;;;3.95;2.58;;;;;;;23.56;50.20;100221.81;5016989;28;20132;-47
2023/07/07 07:38:45;;;;;;;3.67;1.85;;;;;;;23.86;49.95;100215.78;5018482;28;20069;-45
2023/07/07 07:41:12;;;;;;;4.25;3.10;;;;;;;24.17;49.63;100222.94;5007017;28;20655;-48
2023/07/07 07:43:39;;;;;;;2.83;2.22;;;;;;;24.46;49.13;100223.06;5012394;28;20053;-46
2023/07/07 07:46:06;;;;;;;3.22;2.20;;;;;;;24.62;48.61;100223.84;5007125;28;20053;-43
2023/07/07 07:48:33;;;;;;;3.30;2.28;;;;;;;24.78;47.75;100220.28;5015124;28;20049;-49
2023/07/07 07:50:59;;;;;;;3.65;2.53;;;;;;;24.93;47.59;100225.63;5011962;28;20053;-47
2023/07/07 07:53:26;;;;;;;4.15;2.70;;;;;;;25.05;47.11;100224.06;5018098;28;20053;-47
2023/07/07 07:55:53;;;;;;;2.92;2.17;;;;;;;25.11;47.47;100216.56;5012118;28;20068;-48
2023/07/07 07:58:20;;;;;;;5.75;2.85;;;;;;;25.26;47.24;100222.72;5020461;28;20065;-52
2023/07/07 08:00:46;;;;;;;4.32;2.10;;;;;;;25.49;47.29;100219.56;5039155;28;20087;-48
2023/07/07 08:03:13;;;;;;;2.20;1.80;;;;;;;25.66;46.62;100224.69;5028066;28;20033;-50
2023/07/07 08:05:40;;;;;;;3.30;2.38;;;;;;;25.67;45.56;100223.72;5020985;28;20061;-48
2023/07/07 08:08:07;;;;;;;3.55;2.28;;;;;;;25.64;45.42;100210.66;5018654;28;20047;-48
2023/07/07 08:10:34;;;;;;;4.10;3.70;;;;;;;25.64;45.70;100221.25;5022858;28;20053;-50
2023/07/07 08:13:01;;;;;;;3.63;2.63;;;;;;;25.77;45.84;100215.19;5041181;28;20051;-45
2023/07/07 08:15:28;;;;;;;3.95;2.15;;;;;;;26.04;46.40;100220.50;5045502;28;20679;-47
2023/07/07 08:17:54;;;;;;;2.72;1.70;;;;;;;26.35;46.32;100214.16;5032995;28;20045;-48
2023/07/07 08:20:24;;;;;;;3.08;2.30;;;;;;;26.60;45.21;100223.09;5026418;28;20052;-52
2023/07/07 08:22:51;;;;;;;4.15;2.60;;;;;;;26.60;43.63;100213.34;5044476;28;20103;-45
2023/07/07 08:25:18;;;;;;;3.72;2.30;;;;;;;26.55;43.53;100212.81;5036540;28;20049;-50
2023/07/07 08:27:45;;;;;;;2.85;2.58;;;;;;;26.43;43.46;100206.53;5037853;28;20139;-48
2023/07/07 08:30:14;;;;;;;3.08;2.10;;;;;;;26.33;43.47;100211.59;5059497;28;20048;-50
2023/07/07 08:32:41;;;;;;;3.05;2.45;;;;;;;26.52;44.42;100207.72;5041690;28;20036;-47
2023/07/07 08:35:09;;;;;;;3.65;2.60;;;;;;;26.64;43.44;100203.38;5037886;28;20036;-42
2023/07/07 08:37:36;;;;;;;2.67;2.00;;;;;;;26.76;43.67;100206.97;5044018;28;20059;-46
2023/07/07 08:40:04;;;;;;;2.97;2.45;;;;;;;26.99;43.38;100207.22;5044167;28;20540;-48
2023/07/07 08:45:20;;;;;;;2.00;1.00;;;;;;;27.02;42.62;100212.34;5044436;28;20394;-45
2023/07/07 08:50:54;;;;;;;3.70;1.40;;;;;;;27.12;43.13;100197.44;5046972;28;20406;-50
2023/07/07 09:04:53;;;;;;;1.90;0.85;;;;;;;27.78;40.14;100195.47;5044720;28;20391;-47
2023/07/07 09:12:52;;;;;;;2.95;2.40;;;;;;;28.17;39.94;100201.47;5007348;28;20947;-46
2023/07/07 09:15:31;;;;;;;4.82;2.60;;;;;;;28.23;40.35;100201.03;5004843;28;20057;-55
2023/07/07 09:18:06;;;;;;;4.28;2.42;;;;;;;28.26;40.65;100197.28;4996924;28;20054;-45
2023/07/07 09:20:36;;;;;;;1.92;1.25;;;;;;;28.20;40.36;100193.25;5002955;28;20395;-50
2023/07/07 09:23:22;;;;;;;3.78;1.95;;;;;;;28.21;39.65;100194.97;5002798;28;20426;-48
2023/07/07 09:25:57;;;;;;;4.13;2.90;;;;;;;28.22;38.73;100209.13;4985411;28;20050;-47
2023/07/07 09:28:28;;;;;;;2.63;2.30;;;;;;;28.22;39.24;100202.00;4995575;28;20050;-43
2023/07/07 09:31:03;;;;;;;4.82;2.53;;;;;;;28.29;39.82;100202.41;4990429;28;20045;-50
2023/07/07 09:33:29;;;;;;;4.47;2.17;;;;;;;28.26;38.90;100201.75;4996241;28;20046;-45
2023/07/07 09:39:00;;;;;;;4.28;2.22;;;;;;;28.58;38.52;100201.16;5060008;27;20416;-49
2023/07/07 09:41:57;;;;;;;4.53;1.50;;;;;;;28.73;39.60;100205.28;4999167;28;20406;-45
2023/07/07 09:49:54;;;;;;;2.17;1.23;;;;;;;29.04;38.21;100201.25;5097590;27;20403;-48
2023/07/07 09:54:59;;;;;;;4.03;2.63;;;;;;;28.97;38.03;100196.38;5020898;28;20442;-47
2023/07/07 09:57:34;;;;;;;3.40;2.65;;;;;;;29.06;39.54;100197.47;5014877;28;20224;-51
2023/07/07 10:00:03;;;;;;;3.28;2.78;;;;;;;29.22;38.02;100197.09;5017480;28;20056;-49
2023/07/07 10:02:31;;;;;;;5.53;2.78;;;;;;;29.43;38.92;100193.69;5016840;28;20061;-55
2023/07/07 10:05:02;;;;;;;4.97;3.20;;;;;;;29.65;38.35;100189.28;5018961;28;20047;-51
2023/07/07 10:07:34;;;;;;;2.58;1.50;;;;;;;29.71;37.02;100187.94;5016707;28;20449;-50
2023/07/07 10:10:03;;;;;;;4.00;3.13;;;;;;;29.69;37.24;100185.44;5017104;28;20053;-50
2023/07/07 10:12:30;;;;;;;3.33;3.03;;;;;;;29.68;37.70;100178.38;5019894;28;20160;-54
2023/07/07 10:15:27;;;;;;;3.40;3.10;;;;;;;29.74;37.10;100177.88;5020789;28;20053;-52
2023/07/07 10:17:58;;;;;;;3.72;2.80;;;;;;;29.75;36.54;100179.56;5010826;28;20105;-51
2023/07/07 10:20:26;;;;;;;4.32;2.97;;;;;;;29.66;37.50;100180.34;5018825;28;20057;-46
2023/07/07 10:22:53;;;;;;;5.25;2.95;;;;;;;29.53;36.79;100183.16;5016088;28;20120;-46
2023/07/07 10:25:19;;;;;;;4.35;3.45;;;;;;;29.42;36.64;100183.16;5017178;28;20060;-51
2023/07/07 10:27:55;;;;;;;4.15;2.58;;;;;;;29.32;36.46;100177.72;5017769;28;20054;-51
2023/07/07 10:30:21;;;;;;;5.45;3.25;;;;;;;29.32;37.52;100178.56;5014584;28;20081;-49
2023/07/07 10:32:51;;;;;;;3.47;2.95;;;;;;;29.19;37.30;100184.03;5013682;28;20053;-46
2023/07/07 10:35:20;;;;;;;3.78;3.15;;;;;;;29.15;37.46;100163.91;5019491;28;20394;-52
2023/07/07 10:37:47;;;;;;;4.63;3.08;;;;;;;29.09;37.44;100167.91;5019173;28;20056;-52
2023/07/07 10:40:21;;;;;;;3.65;2.72;;;;;;;29.07;37.25;100163.66;5013466;28;20133;-44
2023/07/07 10:42:56;;;;;;;6.70;3.35;;;;;;;29.17;37.61;100169.13;5014914;28;20092;-51
2023/07/07 10:45:23;;;;;;;4.28;3.88;;;;;;;29.32;36.36;100169.72;5013028;28;20046;-47
2023/07/07 10:47:51;;;;;;;4.65;3.63;;;;;;;29.40;36.77;100161.94;5020416;28;20056;-49
2023/07/07 10:50:21;;;;;;;4.20;3.80;;;;;;;29.45;36.33;100157.06;5018996;28;20084;-47
2023/07/07 11:04:49;;;;;;;4.28;2.13;;;;;;;29.65;34.88;100151.09;5061887;27;20411;-49
2023/07/07 11:07:32;;;;;;;2.95;1.88;;;;;;;29.75;35.84;100150.22;5066850;28;20051;-47
2023/07/07 11:10:39;;;;;;;5.65;1.63;;;;;;;29.72;35.82;100150.47;5052219;28;20057;-48
2023/07/07 11:24:13;;;;;;;3.58;2.00;;;;;;;29.96;36.00;100128.03;5039913;28;20406;-53
2023/07/07 11:27:22;;;;;;;4.20;1.90;;;;;;;30.07;36.38;100128.97;5014058;28;20050;-52
2023/07/07 12:02:42;;;;;;;3.17;1.95;;;;;;;30.26;35.94;100123.78;5061716;27;20404;-48
2023/07/07 12:05:13;;;;;;;4.68;1.80;;;;;;;30.18;35.10;100125.41;5033314;28;20140;-52
2023/07/07 12:07:47;;;;;;;3.40;2.03;;;;;;;30.09;35.37;100121.69;5019755;28;20053;-47
2023/07/07 12:15:37;;;;;;;4.35;1.80;;;;;;;29.87;35.59;100123.47;5049287;27;20405;-51
2023/07/07 12:20:46;;;;;;;3.63;1.98;;;;;;;29.68;35.28;100124.19;5025657;28;20759;-52
2023/07/07 12:23:19;;;;;;;3.22;1.98;;;;;;;29.78;35.81;100118.91;5007203;28;20049;-51
2023/07/07 12:25:46;;;;;;;6.72;2.33;;;;;;;29.87;36.26;100107.47;4995704;28;20050;-48
2023/07/07 12:28:13;;;;;;;2.90;1.55;;;;;;;29.88;36.06;100114.50;5003918;28;20105;-53
2023/07/07 12:30:46;;;;;;;4.28;2.17;;;;;;;29.83;34.89;100111.38;4999750;28;20050;-50
2023/07/07 12:33:15;;;;;;;3.95;2.17;;;;;;;29.72;35.24;100109.59;5004361;28;20054;-53
2023/07/07 12:35:47;;;;;;;6.38;2.33;;;;;;;29.74;35.95;100100.50;4997269;28;20046;-50
2023/07/07 12:41:02;;;;;;;7.35;3.58;;;;;;;29.85;35.41;100104.91;5080719;27;20394;-44
2023/07/07 12:43:38;;;;;;;7.22;2.47;;;;;;;29.88;34.75;100103.81;5040408;28;20045;-51
2023/07/07 12:46:17;;;;;;;8.95;2.70;;;;;;;29.92;35.80;100099.91;5041869;28;20052;-49
2023/07/07 12:48:45;;;;;;;3.08;2.55;;;;;;;29.93;35.32;100104.28;5037936;28;20056;-48
2023/07/07 12:51:13;;;;;;;4.40;3.40;;;;;;;29.92;35.68;100099.06;5037513;28;20099;-48
2023/07/07 12:53:45;;;;;;;6.22;3.30;;;;;;;29.96;35.37;100090.66;5031550;28;20058;-53
2023/07/07 12:56:17;;;;;;;4.13;3.30;;;;;;;30.01;35.76;100087.59;5017883;28;20046;-52
2023/07/07 13:01:42;;;;;;;5.10;2.38;;;;;;;30.34;34.24;100087.56;4997294;28;20415;-47
2023/07/07 13:04:11;;;;;;;4.82;2.03;;;;;;;30.10;35.01;100083.31;4999887;28;20054;-47
2023/07/07 13:09:21;;;;;;;3.28;1.60;;;;;;;30.06;35.63;100079.22;5051953;27;20402;-50
2023/07/07 13:11:50;;;;;;;4.22;1.80;;;;;;;29.92;34.85;100073.22;5035402;28;20091;-52
2023/07/07 13:17:18;;;;;;;3.35;1.80;;;;;;;29.90;34.97;100075.19;5045996;27;20399;-52
2023/07/07 13:19:49;;;;;;;4.05;2.20;;;;;;;29.95;35.26;100078.28;5018188;28;20053;-48
2023/07/07 13:22:28;;;;;;;4.55;2.17;;;;;;;30.07;34.98;100075.56;5018905;28;20050;-56
2023/07/07 13:24:58;;;;;;;3.10;1.92;;;;;;;30.24;35.55;100088.34;5017988;28;20421;-53
2023/07/07 13:27:26;;;;;;;4.63;1.98;;;;;;;30.22;34.59;100084.97;5016849;28;20111;-42
2023/07/07 13:30:12;;;;;;;5.47;1.95;;;;;;;30.15;34.19;100083.78;5013678;28;20054;-50
2023/07/07 13:32:39;;;;;;;3.72;2.05;;;;;;;30.06;34.61;100081.88;5005695;28;20038;-46
2023/07/07 13:35:09;;;;;;;3.30;1.98;;;;;;;30.08;34.37;100077.25;4995340;28;20050;-44
2023/07/07 13:37:35;;;;;;;4.38;2.00;;;;;;;30.00;34.48;100075.25;5005060;28;20053;-43
2023/07/07 13:40:03;;;;;;;2.47;1.58;;;;;;;29.99;34.57;100074.38;4998054;28;20049;-52
2023/07/07 13:42:33;;;;;;;3.38;1.75;;;;;;;29.94;33.98;100071.28;4995216;28;20614;-52